Judi M. — WCX8376 — position and weather

sailwx.info

Track history (hours):
 
Tides and Currents Weather Stations Pressure Air Temp Water Temp Dewpoint Dewpoint Depression Visibility Wind Speed Wind Dir Waves Ship Positions

Judi M.

Owner: MANKE TUG & BARGE CO INC, SHELTON, WA. More information available from US FCC via Universal Licensing System and Coast Guard Vessel Documentation Center.

Last reported at 2016-Sep-19 19:33 UTC. Time now 2016-Sep-25 15:46 UTC.
Position N 47°53' W 122°26'.

Length 29 m; draft 4 m.

Type: Tow > 200 m length. MMSI: 366740920.

Date/timePositionNaut miles runAvg speedWind from/ knotsBaromVisibWave heightAir tempDewpointWater temp
2016-Sep-19 19:33N 47°53' W 122°26'9 8.5
2016-Sep-19 18:33N 47°59' W 122°35'15 7.4
2016-Sep-19 16:29N 48°12' W 122°47'18 9.4
2016-Sep-19 14:34N 48°30' W 122°44'5 5.3
2016-Sep-19 13:33N 48°31' W 122°36'1 1.0
2016-Sep-19 12:33N 48°31' W 122°35'5 4.6
2016-Sep-19 11:33N 48°31' W 122°42'13 6.5
2016-Sep-19 09:32N 48°19' W 122°46'12 5.6
2016-Sep-19 07:20N 48°07' W 122°39'810.3
2016-Sep-19 06:33N 47°60' W 122°35'24 7.9
2016-Sep-19 03:33N 47°37' W 122°24'3 3.1
2016-Sep-19 02:33N 47°34' W 122°22'0 0.0
2016-Sep-19 00:33N 47°34' W 122°22'0 0.0
2016-Sep-18 19:33N 47°34' W 122°22'0 0.0
2016-Sep-18 15:33N 47°34' W 122°22'0 0.0
2016-Sep-18 14:33N 47°34' W 122°22'0 0.0
2016-Sep-18 10:33N 47°34' W 122°22'0 0.0
2016-Sep-18 09:33N 47°34' W 122°22'24 3.4
2016-Sep-18 02:33N 47°57' W 122°34'6 5.6
2016-Sep-18 01:33N 48°02' W 122°38'6 4.9
2016-Sep-18 00:26N 48°07' W 122°42'4 1.7
2016-Sep-17 22:15N 48°06' W 122°48'0 0.0
2016-Sep-17 21:33N 48°06' W 122°48'0 0.0
2016-Sep-17 18:53N 48°06' W 122°48'0 0.0
2016-Sep-17 12:21N 48°06' W 122°48'0 0.0
2016-Sep-17 10:33N 48°06' W 122°48'6 5.4
2016-Sep-17 09:28N 48°06' W 122°39'6 6.2
2016-Sep-17 08:32N 48°01' W 122°36'6 6.6
2016-Sep-17 07:33N 47°56' W 122°30'15 7.5
2016-Sep-17 05:33N 47°41' W 122°27'7 6.7
2016-Sep-17 04:33N 47°35' W 122°22'  
2016-Sep-11 08:09N 47°34' W 122°22'0 0.1
2016-Sep-11 07:33N 47°34' W 122°22'20 5.0
2016-Sep-11 03:33N 47°54' W 122°30'6 5.6
2016-Sep-11 02:33N 47°58' W 122°36'5 5.2
2016-Sep-11 01:33N 48°02' W 122°39'5 4.2
2016-Sep-11 00:26N 48°06' W 122°43'1 0.1
2016-Sep-10 12:23N 48°06' W 122°45'6 5.9
2016-Sep-10 11:17N 48°02' W 122°37'6 8.4
2016-Sep-10 10:32N 47°57' W 122°31'7 7.6
2016-Sep-10 09:33N 47°50' W 122°27'7 7.2
2016-Sep-10 08:33N 47°43' W 122°26'6 6.2
2016-Sep-10 07:33N 47°37' W 122°23'3 2.8
2016-Sep-10 06:33N 47°34' W 122°22'0 0.0
2016-Sep-10 05:34N 47°34' W 122°22'0 0.0
2016-Sep-10 04:34N 47°34' W 122°22'0 0.0
2016-Sep-10 03:34N 47°34' W 122°22'0 0.0
2016-Sep-10 02:34N 47°34' W 122°22'0 0.0
2016-Sep-10 01:33N 47°34' W 122°22'0 0.0
2016-Sep-10 00:34N 47°34' W 122°22'0 0.0
2016-Sep-09 23:34N 47°34' W 122°22'0 0.0
2016-Sep-09 22:34N 47°34' W 122°22'  
Track history (hours):
 
Tides and Currents Weather Stations Pressure Air Temp Water Temp Dewpoint Dewpoint Depression Visibility Wind Speed Wind Dir Waves Ship Positions

Judi M.

Owner: MANKE TUG & BARGE CO INC, SHELTON, WA. More information available from US FCC via Universal Licensing System and Coast Guard Vessel Documentation Center.

Last reported at 2016-Sep-19 19:33 UTC. Time now 2016-Sep-25 15:46 UTC.
Position N 47°53' W 122°26'.

Length 29 m; draft 4 m.

Type: Tow > 200 m length. MMSI: 366740920.

Date/timePositionNaut miles runAvg speedWind from/ knotsBaromVisibWave heightAir tempDewpointWater temp
2016-Sep-19 19:33N 47°53' W 122°26'9 8.5
2016-Sep-19 18:33N 47°59' W 122°35'15 7.4
2016-Sep-19 16:29N 48°12' W 122°47'18 9.4
2016-Sep-19 14:34N 48°30' W 122°44'5 5.3
2016-Sep-19 13:33N 48°31' W 122°36'1 1.0
2016-Sep-19 12:33N 48°31' W 122°35'5 4.6
2016-Sep-19 11:33N 48°31' W 122°42'13 6.5
2016-Sep-19 09:32N 48°19' W 122°46'12 5.6
2016-Sep-19 07:20N 48°07' W 122°39'810.3
2016-Sep-19 06:33N 47°60' W 122°35'24 7.9
2016-Sep-19 03:33N 47°37' W 122°24'3 3.1
2016-Sep-19 02:33N 47°34' W 122°22'0 0.0
2016-Sep-19 00:33N 47°34' W 122°22'0 0.0
2016-Sep-18 19:33N 47°34' W 122°22'0 0.0
2016-Sep-18 15:33N 47°34' W 122°22'0 0.0
2016-Sep-18 14:33N 47°34' W 122°22'0 0.0
2016-Sep-18 10:33N 47°34' W 122°22'0 0.0
2016-Sep-18 09:33N 47°34' W 122°22'24 3.4
2016-Sep-18 02:33N 47°57' W 122°34'6 5.6
2016-Sep-18 01:33N 48°02' W 122°38'6 4.9
2016-Sep-18 00:26N 48°07' W 122°42'4 1.7
2016-Sep-17 22:15N 48°06' W 122°48'0 0.0
2016-Sep-17 21:33N 48°06' W 122°48'0 0.0
2016-Sep-17 18:53N 48°06' W 122°48'0 0.0
2016-Sep-17 12:21N 48°06' W 122°48'0 0.0
2016-Sep-17 10:33N 48°06' W 122°48'6 5.4
2016-Sep-17 09:28N 48°06' W 122°39'6 6.2
2016-Sep-17 08:32N 48°01' W 122°36'6 6.6
2016-Sep-17 07:33N 47°56' W 122°30'15 7.5
2016-Sep-17 05:33N 47°41' W 122°27'7 6.7
2016-Sep-17 04:33N 47°35' W 122°22'  
2016-Sep-11 08:09N 47°34' W 122°22'0 0.1
2016-Sep-11 07:33N 47°34' W 122°22'20 5.0
2016-Sep-11 03:33N 47°54' W 122°30'6 5.6
2016-Sep-11 02:33N 47°58' W 122°36'5 5.2
2016-Sep-11 01:33N 48°02' W 122°39'5 4.2
2016-Sep-11 00:26N 48°06' W 122°43'1 0.1
2016-Sep-10 12:23N 48°06' W 122°45'6 5.9
2016-Sep-10 11:17N 48°02' W 122°37'6 8.4
2016-Sep-10 10:32N 47°57' W 122°31'7 7.6
2016-Sep-10 09:33N 47°50' W 122°27'7 7.2
2016-Sep-10 08:33N 47°43' W 122°26'6 6.2
2016-Sep-10 07:33N 47°37' W 122°23'3 2.8
2016-Sep-10 06:33N 47°34' W 122°22'0 0.0
2016-Sep-10 05:34N 47°34' W 122°22'0 0.0
2016-Sep-10 04:34N 47°34' W 122°22'0 0.0
2016-Sep-10 03:34N 47°34' W 122°22'0 0.0
2016-Sep-10 02:34N 47°34' W 122°22'0 0.0
2016-Sep-10 01:33N 47°34' W 122°22'0 0.0
2016-Sep-10 00:34N 47°34' W 122°22'0 0.0
2016-Sep-09 23:34N 47°34' W 122°22'0 0.0
2016-Sep-09 22:34N 47°34' W 122°22'  

Dump ship's entire track history